Terminal Aerodrome Forecast
Issued by NWS Louisville, KY

Home | Current Version | Previous Version | Text Only | Print | Product List | Glossary On
Versions: 1 2 3 4 5 6 7 8 9 10 11 12 13 14 15 16 17 18 19
000
FTUS43 KLMK 220523 AAA
TAFLEX
TAF AMD
KLEX 220523Z 2205/2224 VRB03KT 4SM -SHRA BR OVC025
     FM220800 VRB03KT 3SM BR VCSH OVC018
      TEMPO 2212/2216 2SM BR
     FM221600 18005KT P6SM BKN025
     FM221900 18005KT P6SM BKN040=

USA.gov is the U.S. government's official web portal to all federal, state and local government web resources and services.